createdAt,value
2019-02-15T00:02:38.986Z,1.65
2019-02-15T00:07:44.246Z,1.63
2019-02-15T00:12:49.729Z,1.62
2019-02-15T00:18:20.554Z,1.58
2019-02-15T00:23:26.065Z,1.54
2019-02-15T00:28:31.452Z,1.44
2019-02-15T00:33:36.627Z,1.37
2019-02-15T00:38:41.834Z,1.25
2019-02-15T00:43:47.273Z,1.21
2019-02-15T00:48:52.708Z,1.23
2019-02-15T00:54:23.390Z,1.21
2019-02-15T00:59:42.208Z,1.18
2019-02-15T01:05:09.771Z,1.19
2019-02-15T01:10:29.614Z,1.14
2019-02-15T01:15:35.150Z,1.07
2019-02-15T01:20:40.570Z,1.00
2019-02-15T01:25:52.934Z,0.94
2019-02-15T01:31:16.028Z,0.91
2019-02-15T01:36:27.161Z,0.92
2019-02-15T01:41:38.989Z,0.85
2019-02-15T01:47:03.664Z,0.84
2019-02-15T01:52:09.170Z,0.78
2019-02-15T01:57:14.333Z,0.75
2019-02-15T02:02:20.210Z,0.71
2019-02-15T02:07:25.749Z,0.68
2019-02-15T02:12:30.864Z,0.63
2019-02-15T02:17:36.206Z,0.58
2019-02-15T02:22:41.592Z,0.51
2019-02-15T02:27:46.783Z,0.44
2019-02-15T02:32:51.990Z,0.41
2019-02-15T02:37:57.224Z,0.39
2019-02-15T02:43:02.391Z,0.38
2019-02-15T02:48:08.554Z,0.36
2019-02-15T02:53:14.074Z,0.35
2019-02-15T02:58:19.259Z,0.31
2019-02-15T03:03:24.542Z,0.24
2019-02-15T03:08:31.187Z,0.17
2019-02-15T03:13:36.990Z,0.09
2019-02-15T03:18:42.486Z,0.01
2019-02-15T03:23:47.684Z,-0.03
2019-02-15T03:28:52.839Z,-0.02
2019-02-15T03:33:57.940Z,-0.02
2019-02-15T03:39:13.231Z,-0.06
2019-02-15T03:44:22.226Z,-0.13
2019-02-15T03:49:25.946Z,-0.15
2019-02-15T03:54:33.879Z,-0.16
2019-02-15T03:59:39.600Z,-0.16
2019-02-15T04:04:45.929Z,-0.25
2019-02-15T04:09:51.409Z,-0.30
2019-02-15T04:14:56.995Z,-0.33
2019-02-15T04:20:02.182Z,-0.37
2019-02-15T04:25:07.432Z,-0.35
2019-02-15T04:30:12.610Z,-0.30
2019-02-15T04:35:18.642Z,-0.30
2019-02-15T04:40:24.875Z,-0.34
2019-02-15T04:45:30.139Z,-0.33
2019-02-15T04:50:35.327Z,-0.30
2019-02-15T04:55:41.758Z,-0.27
2019-02-15T05:00:47.031Z,-0.33
2019-02-15T05:05:53.059Z,-0.41
2019-02-15T05:10:58.557Z,-0.46
2019-02-15T05:16:05.622Z,-0.57
2019-02-15T05:21:12.786Z,-0.58
2019-02-15T05:26:17.851Z,-0.58
2019-02-15T05:31:23.326Z,-0.55
2019-02-15T05:36:28.556Z,-0.50
2019-02-15T05:41:34.205Z,-0.45
2019-02-15T05:46:39.472Z,-0.39
2019-02-15T05:51:44.672Z,-0.43
2019-02-15T05:56:52.015Z,-0.44
2019-02-15T06:01:58.533Z,-0.50
2019-02-15T06:07:05.345Z,-0.53
2019-02-15T06:12:10.544Z,-0.60
2019-02-15T06:17:19.561Z,-0.59
2019-02-15T06:22:26.158Z,-0.63
2019-02-15T06:27:31.671Z,-0.65
2019-02-15T06:32:37.232Z,-0.67
2019-02-15T06:37:42.463Z,-0.68
2019-02-15T06:42:47.687Z,-0.79
2019-02-15T06:47:53.572Z,-0.90
2019-02-15T06:52:59.060Z,-0.86
2019-02-15T06:58:05.506Z,-0.77
2019-02-15T07:03:19.209Z,-0.70
2019-02-15T07:08:24.786Z,-0.59
2019-02-15T07:13:31.143Z,-0.45
2019-02-15T07:18:37.059Z,-0.39
2019-02-15T07:23:43.220Z,-0.39
2019-02-15T07:28:48.418Z,-0.36
2019-02-15T07:33:54.593Z,-0.30
2019-02-15T07:38:59.814Z,-0.17
2019-02-15T07:44:06.095Z,0.00
2019-02-15T07:49:11.624Z,0.20
2019-02-15T07:54:16.816Z,0.31
2019-02-15T07:59:22.342Z,0.38
2019-02-15T08:04:27.827Z,0.51
2019-02-15T08:09:33.017Z,0.65
2019-02-15T08:14:38.277Z,0.75
2019-02-15T08:19:43.464Z,0.86
2019-02-15T08:24:49.729Z,1.00
2019-02-15T08:29:55.926Z,1.24
2019-02-15T08:35:01.942Z,1.41
2019-02-15T08:40:08.172Z,1.81
2019-02-15T08:45:13.489Z,1.84
2019-02-15T08:50:19.059Z,2.02
2019-02-15T08:55:24.562Z,2.18
2019-02-15T09:00:29.748Z,2.38
2019-02-15T09:05:35.255Z,2.73
2019-02-15T09:10:40.440Z,2.88
2019-02-15T09:15:46.269Z,2.91
2019-02-15T09:20:51.777Z,3.13
2019-02-15T09:25:56.963Z,3.31
2019-02-15T09:31:02.149Z,3.51
2019-02-15T09:36:07.369Z,3.87
2019-02-15T09:41:12.926Z,3.94
2019-02-15T09:46:20.253Z,4.13
2019-02-15T09:51:25.028Z,4.44
2019-02-15T09:56:30.371Z,4.64
2019-02-15T10:01:35.695Z,6.09
2019-02-15T10:06:41.242Z,5.48
2019-02-15T10:11:46.723Z,5.62
2019-02-15T10:16:51.998Z,5.82
2019-02-15T10:21:57.596Z,6.01
2019-02-15T10:27:02.789Z,6.43
2019-02-15T10:32:08.080Z,6.51
2019-02-15T10:37:13.316Z,6.73
2019-02-15T10:42:18.496Z,6.82
2019-02-15T10:47:25.286Z,7.25
2019-02-15T10:52:30.812Z,7.47
2019-02-15T10:57:36.059Z,7.60
2019-02-15T11:02:41.377Z,7.89
2019-02-15T11:07:47.525Z,8.09
2019-02-15T11:12:52.798Z,8.25
2019-02-15T11:17:58.051Z,8.60
2019-02-15T11:23:03.579Z,8.73
2019-02-15T11:28:08.777Z,9.20
2019-02-15T11:33:14.046Z,9.35
2019-02-15T11:38:19.339Z,9.49
2019-02-15T11:43:24.618Z,9.90
2019-02-15T11:48:29.886Z,10.33
2019-02-15T11:53:35.168Z,10.44
2019-02-15T11:58:40.766Z,10.69
2019-02-15T12:03:46.075Z,10.93
2019-02-15T12:08:51.840Z,11.07
2019-02-15T12:13:58.679Z,11.20
2019-02-15T12:19:04.016Z,11.42
2019-02-15T12:24:10.054Z,11.63
2019-02-15T12:29:15.300Z,11.90
2019-02-15T12:34:20.609Z,12.13
2019-02-15T12:39:25.918Z,12.29
2019-02-15T12:44:31.193Z,12.41
2019-02-15T12:49:36.481Z,12.65
2019-02-15T12:54:42.368Z,12.92
2019-02-15T12:59:48.943Z,13.07
2019-02-15T13:04:54.286Z,13.39
2019-02-15T13:10:00.261Z,13.45
2019-02-15T13:15:06.981Z,13.47
2019-02-15T13:20:12.552Z,13.82
2019-02-15T13:25:17.838Z,13.94
2019-02-15T13:30:23.102Z,14.93
2019-02-15T13:35:29.037Z,15.53
2019-02-15T13:40:34.342Z,15.75
2019-02-15T13:45:39.639Z,16.23
2019-02-15T13:50:46.205Z,16.38
2019-02-15T13:55:51.472Z,15.92
2019-02-15T14:00:57.529Z,16.08
2019-02-15T14:06:03.131Z,15.76
2019-02-15T14:11:08.443Z,15.95
2019-02-15T14:16:13.714Z,17.06
2019-02-15T14:21:19.414Z,16.66
2019-02-15T14:26:24.689Z,16.97
2019-02-15T14:31:29.973Z,16.75
2019-02-15T14:36:35.402Z,17.14
2019-02-15T14:41:41.017Z,17.46
2019-02-15T14:46:46.302Z,17.52
2019-02-15T14:51:51.866Z,17.04
2019-02-15T14:56:57.441Z,18.05
2019-02-15T15:02:03.064Z,17.63
2019-02-15T15:07:08.325Z,17.13
2019-02-15T15:12:13.615Z,17.91
2019-02-15T15:17:18.905Z,18.45
2019-02-15T15:22:24.207Z,18.42
2019-02-15T15:27:29.499Z,17.89
2019-02-15T15:32:34.778Z,17.21
2019-02-15T15:37:40.500Z,16.88
2019-02-15T15:42:45.829Z,16.64
2019-02-15T15:47:51.097Z,16.24
2019-02-15T15:52:56.410Z,15.66
2019-02-15T15:58:02.661Z,15.42
2019-02-15T16:03:08.020Z,15.07
2019-02-15T16:08:13.507Z,14.75
2019-02-15T16:13:18.905Z,14.60
2019-02-15T16:18:32.894Z,14.26
2019-02-15T16:23:31.678Z,13.79
2019-02-15T16:28:36.943Z,13.44
2019-02-15T16:33:42.579Z,13.16
2019-02-15T16:38:47.881Z,12.37
2019-02-15T16:43:53.196Z,12.17
2019-02-15T16:48:58.471Z,11.99
2019-02-15T16:54:04.108Z,11.72
2019-02-15T16:59:09.377Z,11.44
2019-02-15T17:04:14.887Z,11.34
2019-02-15T17:09:20.721Z,11.10
2019-02-15T17:14:26.077Z,10.93
2019-02-15T17:19:31.414Z,10.87
2019-02-15T17:24:36.757Z,10.80
2019-02-15T17:29:42.152Z,10.67
2019-02-15T17:34:48.848Z,10.54
2019-02-15T17:39:54.143Z,10.44
2019-02-15T17:45:00.441Z,10.32
2019-02-15T17:50:06.168Z,10.20
2019-02-15T17:55:11.780Z,10.11
2019-02-15T18:00:18.955Z,9.96
2019-02-15T18:05:24.221Z,9.79
2019-02-15T18:10:30.368Z,9.66
2019-02-15T18:15:35.971Z,9.61
2019-02-15T18:20:41.543Z,9.46
2019-02-15T18:25:46.810Z,9.37
2019-02-15T18:30:52.180Z,9.33
2019-02-15T18:35:58.281Z,9.30
2019-02-15T18:41:13.101Z,9.21
2019-02-15T18:46:10.990Z,9.09
2019-02-15T18:51:16.287Z,9.04
2019-02-15T18:56:21.566Z,9.00
2019-02-15T19:01:26.876Z,9.09
2019-02-15T19:06:32.655Z,8.83
2019-02-15T19:11:38.214Z,8.60
2019-02-15T19:16:43.936Z,8.49
2019-02-15T19:21:49.550Z,8.54
2019-02-15T19:26:55.580Z,8.63
2019-02-15T19:32:03.574Z,8.56
2019-02-15T19:37:10.037Z,8.49
2019-02-15T19:42:20.199Z,8.39
2019-02-15T19:47:25.537Z,8.20
2019-02-15T19:52:30.801Z,8.05
2019-02-15T19:57:37.114Z,7.81
2019-02-15T20:02:43.466Z,7.71
2019-02-15T20:07:48.781Z,7.72
2019-02-15T20:12:55.618Z,7.56
2019-02-15T20:18:02.069Z,7.50
2019-02-15T20:23:07.343Z,7.33
2019-02-15T20:28:14.340Z,7.12
2019-02-15T20:33:20.185Z,7.01
2019-02-15T20:38:25.626Z,6.96
2019-02-15T20:43:30.892Z,7.05
2019-02-15T20:48:36.213Z,7.09
2019-02-15T20:53:41.794Z,7.01
2019-02-15T20:58:47.329Z,6.97
2019-02-15T21:03:52.522Z,6.77
2019-02-15T21:08:59.618Z,6.75
2019-02-15T21:14:06.064Z,6.76
2019-02-15T21:19:11.332Z,6.74
2019-02-15T21:24:16.914Z,6.71
2019-02-15T21:29:22.107Z,6.62
2019-02-15T21:34:28.411Z,6.64
2019-02-15T21:39:34.695Z,6.65
2019-02-15T21:44:41.389Z,6.55
2019-02-15T21:49:46.574Z,6.47
2019-02-15T21:54:52.205Z,6.32
2019-02-15T21:59:57.681Z,6.11
2019-02-15T22:05:03.668Z,6.12
2019-02-15T22:10:09.468Z,6.20
2019-02-15T22:15:14.657Z,6.17
2019-02-15T22:20:26.820Z,5.97
2019-02-15T22:25:27.508Z,6.05
2019-02-15T22:30:32.798Z,5.91
2019-02-15T22:35:38.403Z,5.89
2019-02-15T22:40:44.863Z,6.02
2019-02-15T22:45:51.216Z,5.99
2019-02-15T22:50:56.822Z,5.89
2019-02-15T22:56:02.001Z,5.64
2019-02-15T23:01:18.472Z,5.23
2019-02-15T23:06:23.669Z,5.00
2019-02-15T23:11:28.974Z,5.00
2019-02-15T23:16:34.161Z,5.01
2019-02-15T23:21:39.635Z,4.86
2019-02-15T23:26:45.162Z,4.67
2019-02-15T23:31:50.371Z,4.74
2019-02-15T23:36:56.229Z,4.88
2019-02-15T23:42:01.566Z,4.64
2019-02-15T23:47:07.529Z,4.56
2019-02-15T23:52:13.123Z,4.54
2019-02-15T23:57:18.304Z,4.57
